Time;durP1;ratioP1;P1;durP2;ratioP2;P2;SDS_P1;SDS_P2;PMS_P1;PMS_P2;Temp;Humidity;BMP_temperature;BMP_pressure;BME280_temperature;BME280_humidity;BME280_pressure;Samples;Min_cycle;Max_cycle;Signal;HPM_P1;HPM_P2
2023/01/09 00:00:47;;;;;;;2.35;0.60;;;7.50;99.90;;;;;;5059728;28;20123;-37
2023/01/09 00:03:12;;;;;;;4.72;1.00;;;7.50;99.90;;;;;;5064511;28;20045;-38
2023/01/09 00:05:38;;;;;;;2.38;0.50;;;7.40;99.90;;;;;;5069082;28;20036;-37
2023/01/09 00:08:04;;;;;;;2.35;0.55;;;7.40;99.90;;;;;;5064133;28;20044;-37
2023/01/09 00:10:30;;;;;;;6.30;0.52;;;7.40;99.90;;;;;;5068137;28;20106;-37
2023/01/09 00:12:55;;;;;;;2.50;0.50;;;7.40;99.90;;;;;;5067426;28;20036;-44
2023/01/09 00:15:21;;;;;;;1.98;0.50;;;7.30;99.90;;;;;;5066509;28;20497;-37
2023/01/09 00:17:48;;;;;;;2.30;0.40;;;7.30;99.90;;;;;;5067146;28;20135;-38
2023/01/09 00:20:14;;;;;;;1.80;0.60;;;7.30;99.90;;;;;;5071588;28;20049;-39
2023/01/09 00:22:40;;;;;;;3.05;0.57;;;7.30;99.90;;;;;;5066309;28;20113;-38
2023/01/09 00:25:07;;;;;;;3.97;0.57;;;7.30;99.90;;;;;;5060368;28;20030;-38
2023/01/09 00:27:34;;;;;;;1.83;0.45;;;7.30;99.90;;;;;;5067895;28;20048;-38
2023/01/09 00:30:00;;;;;;;2.08;0.40;;;7.30;99.90;;;;;;5064607;28;20036;-38
2023/01/09 00:32:27;;;;;;;1.52;0.40;;;7.20;99.90;;;;;;5063328;28;20055;-39
2023/01/09 00:34:54;;;;;;;2.28;0.40;;;7.20;99.90;;;;;;5066397;28;20110;-38
2023/01/09 00:37:20;;;;;;;1.90;0.45;;;7.20;99.90;;;;;;5062994;28;20033;-52
2023/01/09 00:39:46;;;;;;;1.02;0.30;;;7.20;99.90;;;;;;5064662;28;20508;-37
2023/01/09 00:42:16;;;;;;;2.92;0.50;;;7.20;99.90;;;;;;5065273;28;20044;-37
2023/01/09 00:45:04;;;;;;;1.38;0.57;;;7.10;99.90;;;;;;5065889;28;20155;-37
2023/01/09 00:47:35;;;;;;;1.27;0.40;;;7.10;99.90;;;;;;5049771;28;20036;-37
2023/01/09 00:50:07;;;;;;;0.63;0.32;;;7.10;99.90;;;;;;5062920;28;20089;-37
2023/01/09 00:52:36;;;;;;;1.23;0.30;;;7.10;99.90;;;;;;5067416;28;20100;-38
2023/01/09 00:55:02;;;;;;;1.05;0.40;;;7.00;99.90;;;;;;5062759;28;20040;-38
2023/01/09 00:57:29;;;;;;;1.80;0.40;;;7.00;99.90;;;;;;5062212;28;20055;-37
2023/01/09 00:59:56;;;;;;;1.60;0.40;;;7.00;99.90;;;;;;5062917;28;20508;-37
2023/01/09 01:02:22;;;;;;;1.65;0.40;;;7.00;99.90;;;;;;5062511;28;20051;-38
2023/01/09 01:07:38;;;;;;;1.75;0.45;;;7.00;99.90;;;;;;5065532;28;20076;-43
2023/01/09 01:10:25;;;;;;;2.88;0.57;;;7.00;99.90;;;;;;5064267;28;20040;-47
2023/01/09 01:12:51;;;;;;;2.25;0.50;;;7.00;99.90;;;;;;5064629;28;20381;-38
2023/01/09 01:15:18;;;;;;;1.83;0.50;;;7.00;99.90;;;;;;5063240;28;20086;-39
2023/01/09 01:17:44;;;;;;;2.15;0.40;;;6.90;99.90;;;;;;5064496;28;20036;-38
2023/01/09 01:20:14;;;;;;;2.30;0.50;;;6.90;99.90;;;;;;5064925;28;20119;-38
2023/01/09 01:22:42;;;;;;;2.78;0.70;;;6.90;99.90;;;;;;5066702;28;20036;-37
2023/01/09 01:25:10;;;;;;;1.50;0.55;;;6.90;99.90;;;;;;5064419;28;20508;-38
2023/01/09 01:27:36;;;;;;;1.50;0.38;;;6.90;99.90;;;;;;5066542;28;20068;-38
2023/01/09 01:30:02;;;;;;;1.15;0.50;;;6.90;99.90;;;;;;5065805;28;20071;-37
2023/01/09 01:32:28;;;;;;;1.90;0.60;;;6.90;99.90;;;;;;5063986;28;20041;-39
2023/01/09 01:34:54;;;;;;;2.22;0.80;;;6.80;99.90;;;;;;5067755;28;20041;-37
2023/01/09 01:37:21;;;;;;;2.92;0.88;;;6.80;99.90;;;;;;5063060;28;20035;-38
2023/01/09 01:39:47;;;;;;;3.45;0.47;;;6.70;99.90;;;;;;5063773;28;20111;-38
2023/01/09 01:42:13;;;;;;;4.80;0.60;;;6.70;99.90;;;;;;5067896;28;20115;-38
2023/01/09 01:44:57;;;;;;;2.50;0.60;;;6.60;99.90;;;;;;5064533;28;20044;-37
2023/01/09 01:47:33;;;;;;;3.97;1.00;;;6.60;99.90;;;;;;5048542;28;20131;-38
2023/01/09 01:50:03;;;;;;;1.88;0.50;;;6.60;99.90;;;;;;5072711;28;20086;-37
2023/01/09 01:52:31;;;;;;;2.17;0.45;;;6.50;99.90;;;;;;5066511;28;20053;-38
2023/01/09 01:54:57;;;;;;;3.40;0.40;;;6.50;99.90;;;;;;5051033;28;20037;-37
2023/01/09 01:57:23;;;;;;;2.75;0.60;;;6.50;99.90;;;;;;5045475;28;20037;-37
2023/01/09 01:59:55;;;;;;;3.33;0.60;;;6.40;99.90;;;;;;5049467;28;20128;-37
2023/01/09 02:02:26;;;;;;;2.13;0.70;;;6.40;99.90;;;;;;5044611;28;20072;-39
2023/01/09 02:04:53;;;;;;;3.88;1.00;;;6.40;99.90;;;;;;5050034;28;20044;-38
2023/01/09 02:07:19;;;;;;;1.98;0.60;;;6.30;99.90;;;;;;5050822;28;20517;-48
2023/01/09 02:09:45;;;;;;;4.65;0.52;;;6.30;99.90;;;;;;5046635;28;20048;-38
2023/01/09 02:12:23;;;;;;;3.35;0.93;;;6.20;99.90;;;;;;5034437;28;20120;-37
2023/01/09 02:15:10;;;;;;;1.70;0.50;;;6.20;99.90;;;;;;5047473;28;20499;-37
2023/01/09 02:18:04;;;;;;;3.25;0.50;;;6.10;99.90;;;;;;5048576;28;20141;-38
2023/01/09 02:20:32;;;;;;;3.63;0.68;;;6.10;99.90;;;;;;5046452;28;20037;-38
2023/01/09 02:23:32;;;;;;;2.90;0.70;;;6.10;99.90;;;;;;5048203;28;20033;-38
2023/01/09 02:26:12;;;;;;;1.73;0.60;;;6.10;99.90;;;;;;5042126;28;20086;-38
2023/01/09 02:28:56;;;;;;;6.13;0.98;;;6.00;99.90;;;;;;5046855;28;20041;-38
2023/01/09 02:31:31;;;;;;;6.00;0.80;;;5.90;99.90;;;;;;5050601;28;20036;-38
2023/01/09 02:34:26;;;;;;;2.80;0.68;;;5.90;99.90;;;;;;5052685;28;20041;-38
2023/01/09 02:37:06;;;;;;;1.65;0.70;;;5.90;99.90;;;;;;5045860;28;20029;-37
2023/01/09 02:39:52;;;;;;;5.45;0.70;;;5.80;99.90;;;;;;5050853;28;20084;-38
2023/01/09 02:42:24;;;;;;;1.63;0.73;;;5.80;99.90;;;;;;5050137;28;20112;-37
2023/01/09 02:44:50;;;;;;;4.32;0.80;;;5.80;99.90;;;;;;5050194;28;20482;-37
2023/01/09 02:47:15;;;;;;;1.73;0.98;;;5.70;99.90;;;;;;5051477;28;20029;-37
2023/01/09 02:49:52;;;;;;;3.20;0.93;;;5.70;99.90;;;;;;5049077;28;20112;-38
2023/01/09 02:52:30;;;;;;;2.88;0.93;;;5.70;99.90;;;;;;5047971;28;20049;-38
2023/01/09 02:55:25;;;;;;;2.38;0.90;;;5.70;99.90;;;;;;5049381;28;20079;-38
2023/01/09 02:58:00;;;;;;;5.45;0.80;;;5.60;99.90;;;;;;5045571;28;20130;-37
2023/01/09 03:00:33;;;;;;;3.30;0.90;;;5.60;99.90;;;;;;5044492;28;20586;-37
2023/01/09 03:03:16;;;;;;;5.70;1.20;;;5.50;99.90;;;;;;5044537;28;20045;-38
2023/01/09 03:06:06;;;;;;;2.33;1.00;;;5.50;99.90;;;;;;5049253;28;20033;-37
2023/01/09 03:08:43;;;;;;;2.70;1.00;;;5.50;99.90;;;;;;5047058;28;20037;-38
2023/01/09 03:11:10;;;;;;;4.40;0.85;;;5.40;99.90;;;;;;5045180;28;20060;-38
2023/01/09 03:13:50;;;;;;;3.13;0.88;;;5.40;99.90;;;;;;5043126;28;20047;-38
2023/01/09 03:16:20;;;;;;;3.28;0.75;;;5.30;99.90;;;;;;5046909;28;20168;-38
2023/01/09 03:18:49;;;;;;;4.63;1.20;;;5.30;99.90;;;;;;5050410;28;20097;-38
2023/01/09 03:21:15;;;;;;;3.95;0.90;;;5.30;99.90;;;;;;5048609;28;20041;-37
2023/01/09 03:23:45;;;;;;;4.47;1.30;;;5.30;99.90;;;;;;5042841;28;20402;-38
2023/01/09 03:26:11;;;;;;;3.22;1.05;;;5.30;99.90;;;;;;5043950;28;20040;-37
2023/01/09 03:28:37;;;;;;;3.78;1.60;;;5.20;99.90;;;;;;5047526;28;20064;-38
2023/01/09 03:31:02;;;;;;;5.07;1.50;;;5.20;99.90;;;;;;5043218;28;20029;-38
2023/01/09 03:33:28;;;;;;;3.78;1.40;;;5.30;99.90;;;;;;5042166;28;20041;-38
2023/01/09 03:35:54;;;;;;;4.65;1.83;;;5.20;99.90;;;;;;5046305;28;20037;-37
2023/01/09 03:38:19;;;;;;;5.65;1.90;;;5.20;99.90;;;;;;5051082;28;20127;-38
2023/01/09 03:40:45;;;;;;;4.32;1.90;;;5.20;99.90;;;;;;5043944;28;20073;-39
2023/01/09 03:43:11;;;;;;;4.75;1.75;;;5.20;99.90;;;;;;5045663;28;20041;-38
2023/01/09 03:45:36;;;;;;;3.13;1.73;;;5.20;99.90;;;;;;5028094;28;20048;-38
2023/01/09 03:48:02;;;;;;;6.05;2.53;;;5.10;99.90;;;;;;5042491;28;20139;-39
2023/01/09 03:50:28;;;;;;;5.63;2.00;;;5.20;99.90;;;;;;5042014;28;20079;-39
2023/01/09 03:52:53;;;;;;;8.88;3.53;;;5.20;99.90;;;;;;5055144;28;20513;-39
2023/01/09 03:55:19;;;;;;;8.88;2.97;;;5.10;99.90;;;;;;5060914;28;20049;-39
2023/01/09 03:57:45;;;;;;;5.57;2.80;;;5.10;99.90;;;;;;5046963;28;20036;-39
2023/01/09 04:00:11;;;;;;;7.25;3.17;;;5.10;99.90;;;;;;5058928;28;20044;-38
2023/01/09 04:02:36;;;;;;;10.93;4.13;;;5.10;99.90;;;;;;5057245;28;20048;-38
2023/01/09 04:05:02;;;;;;;8.35;3.78;;;5.10;99.90;;;;;;5062408;28;20079;-38
2023/01/09 04:07:28;;;;;;;7.18;3.30;;;5.10;99.90;;;;;;5045338;28;20032;-37
2023/01/09 04:09:53;;;;;;;6.40;3.30;;;5.00;99.90;;;;;;5045035;28;20154;-38
2023/01/09 04:12:19;;;;;;;7.10;3.75;;;5.00;99.90;;;;;;5062990;28;20448;-37
2023/01/09 04:14:45;;;;;;;7.00;3.45;;;5.00;99.90;;;;;;5062496;28;20409;-38
2023/01/09 04:17:10;;;;;;;6.78;3.63;;;5.00;99.90;;;;;;5064875;28;20095;-44
2023/01/09 04:19:36;;;;;;;7.93;3.88;;;4.90;99.90;;;;;;5063485;28;20157;-39
2023/01/09 04:22:02;;;;;;;7.57;3.80;;;4.90;99.90;;;;;;5059930;28;20043;-38
2023/01/09 04:24:27;;;;;;;9.50;4.20;;;4.80;99.90;;;;;;5063363;28;20037;-38
2023/01/09 04:26:54;;;;;;;6.97;3.53;;;4.80;99.90;;;;;;5061060;28;20037;-38
2023/01/09 04:29:20;;;;;;;10.07;4.05;;;4.70;99.90;;;;;;5064676;28;20037;-37
2023/01/09 04:31:45;;;;;;;7.93;4.32;;;4.70;99.90;;;;;;5066604;28;20037;-39
2023/01/09 04:34:11;;;;;;;7.63;3.88;;;4.70;99.90;;;;;;5060774;28;20105;-38
2023/01/09 04:36:37;;;;;;;7.22;3.75;;;4.60;99.90;;;;;;5063914;28;20456;-37
2023/01/09 04:39:03;;;;;;;10.20;4.60;;;4.70;99.90;;;;;;5064392;28;20040;-37
2023/01/09 04:44:13;;;;;;;7.97;4.47;;;4.60;99.90;;;;;;5068872;28;20102;-37
2023/01/09 04:46:38;;;;;;;8.07;4.15;;;4.60;99.90;;;;;;5065478;28;20528;-38
2023/01/09 04:49:04;;;;;;;8.05;4.32;;;4.60;99.90;;;;;;5066072;28;20047;-38
2023/01/09 04:51:30;;;;;;;8.98;3.75;;;4.60;99.90;;;;;;5065411;28;20036;-37
2023/01/09 04:53:55;;;;;;;9.45;4.38;;;4.60;99.90;;;;;;5064143;28;20049;-37
2023/01/09 04:56:21;;;;;;;8.30;4.25;;;4.60;99.90;;;;;;5066141;28;20093;-39
2023/01/09 04:58:47;;;;;;;11.82;4.38;;;4.60;99.90;;;;;;5063590;28;20139;-39
2023/01/09 05:01:12;;;;;;;8.02;4.10;;;4.50;99.90;;;;;;5061158;28;20040;-38
2023/01/09 05:03:38;;;;;;;11.20;3.83;;;4.60;99.90;;;;;;5061972;28;20062;-37
2023/01/09 05:06:04;;;;;;;6.53;3.88;;;4.60;99.90;;;;;;5064164;28;20079;-41
2023/01/09 05:08:29;;;;;;;15.05;4.35;;;4.60;99.90;;;;;;5063821;28;20072;-46
2023/01/09 05:10:55;;;;;;;9.70;4.55;;;4.60;99.90;;;;;;5059686;28;20117;-38
2023/01/09 05:13:21;;;;;;;6.85;3.58;;;4.60;99.90;;;;;;5061762;28;20446;-37
2023/01/09 05:15:46;;;;;;;11.40;5.65;;;4.60;99.90;;;;;;5063656;28;20493;-37
2023/01/09 05:18:12;;;;;;;10.10;5.30;;;4.60;99.90;;;;;;5061101;28;20497;-38
2023/01/09 05:20:38;;;;;;;11.38;5.30;;;4.50;99.90;;;;;;5065750;28;20060;-38
2023/01/09 05:23:03;;;;;;;9.32;4.10;;;4.50;99.90;;;;;;5069589;28;20106;-37
2023/01/09 05:25:29;;;;;;;9.18;4.63;;;4.50;99.90;;;;;;5068303;28;20062;-37
2023/01/09 05:27:55;;;;;;;11.00;5.72;;;4.50;99.90;;;;;;5067619;28;20043;-38
2023/01/09 05:30:20;;;;;;;9.23;5.00;;;4.50;99.90;;;;;;5065675;28;20044;-37
2023/01/09 05:32:46;;;;;;;11.57;5.47;;;4.40;99.90;;;;;;5062283;28;20079;-37
2023/01/09 05:35:12;;;;;;;9.20;4.47;;;4.40;99.90;;;;;;5064293;28;20033;-37
2023/01/09 05:37:38;;;;;;;11.75;5.10;;;4.40;99.90;;;;;;5069295;28;20523;-38
2023/01/09 05:40:05;;;;;;;9.70;4.63;;;4.40;99.90;;;;;;5071098;28;20087;-37
2023/01/09 05:42:31;;;;;;;11.90;5.60;;;4.40;99.90;;;;;;5067007;28;20079;-37
2023/01/09 05:44:56;;;;;;;15.35;5.75;;;4.40;99.90;;;;;;5068521;28;20069;-37
2023/01/09 05:47:22;;;;;;;9.10;4.60;;;4.40;99.90;;;;;;5068621;28;20083;-38
2023/01/09 05:49:48;;;;;;;10.00;4.55;;;4.40;99.90;;;;;;5070304;28;20071;-38
2023/01/09 05:52:13;;;;;;;12.10;4.60;;;4.40;99.90;;;;;;5068742;28;20048;-37
2023/01/09 05:54:39;;;;;;;10.63;5.35;;;4.40;99.90;;;;;;5066484;28;20460;-37
2023/01/09 05:57:05;;;;;;;10.25;4.78;;;4.30;99.90;;;;;;5063633;28;20040;-37
2023/01/09 05:59:30;;;;;;;8.43;4.55;;;4.30;99.90;;;;;;5071068;28;20402;-37
2023/01/09 06:01:56;;;;;;;8.73;4.60;;;4.30;99.90;;;;;;5065703;28;21420;-37
2023/01/09 06:04:22;;;;;;;9.70;4.70;;;4.30;99.90;;;;;;5064601;28;20399;-37
2023/01/09 06:06:47;;;;;;;8.40;4.35;;;4.30;99.90;;;;;;5063665;28;20036;-38
2023/01/09 06:09:13;;;;;;;11.65;4.68;;;4.30;99.90;;;;;;5070326;28;20067;-38
2023/01/09 06:11:39;;;;;;;8.55;3.83;;;4.30;99.90;;;;;;5068414;28;20371;-38
2023/01/09 06:14:05;;;;;;;7.85;4.38;;;4.30;99.90;;;;;;5064824;28;20040;-38
2023/01/09 06:16:31;;;;;;;13.38;4.60;;;4.30;99.90;;;;;;5069907;28;20047;-37
2023/01/09 06:18:57;;;;;;;8.98;4.30;;;4.30;99.90;;;;;;5069164;28;20398;-37
2023/01/09 06:21:23;;;;;;;8.73;5.03;;;4.30;99.90;;;;;;5069984;28;20040;-38
2023/01/09 06:23:49;;;;;;;8.27;3.03;;;4.40;99.90;;;;;;5067058;28;20036;-37
2023/01/09 06:26:14;;;;;;;11.45;3.28;;;4.40;99.90;;;;;;5068627;28;20041;-37
2023/01/09 06:28:40;;;;;;;10.30;4.32;;;4.50;99.90;;;;;;5067374;28;20509;-37
2023/01/09 06:31:05;;;;;;;10.43;3.05;;;4.50;99.90;;;;;;5067934;28;20037;-37
2023/01/09 06:33:31;;;;;;;5.97;3.42;;;4.60;99.90;;;;;;5068720;28;20040;-37
2023/01/09 06:35:57;;;;;;;10.32;3.53;;;4.60;99.90;;;;;;5059713;28;20447;-38
2023/01/09 06:38:23;;;;;;;7.47;2.85;;;4.70;99.90;;;;;;5067942;28;20573;-38
2023/01/09 06:40:49;;;;;;;6.18;2.70;;;4.80;99.90;;;;;;5064265;28;20032;-37
2023/01/09 06:43:15;;;;;;;6.53;3.10;;;4.80;99.90;;;;;;5066349;28;20068;-37
2023/01/09 06:45:42;;;;;;;8.57;2.95;;;4.90;99.90;;;;;;5067173;28;20068;-37
2023/01/09 06:48:09;;;;;;;7.00;2.15;;;4.90;99.90;;;;;;5066825;28;20039;-38
2023/01/09 06:50:34;;;;;;;7.18;2.20;;;5.00;99.90;;;;;;5065171;28;20036;-38
2023/01/09 06:53:00;;;;;;;5.05;1.95;;;5.00;99.90;;;;;;5066067;28;20082;-37
2023/01/09 06:55:26;;;;;;;5.65;2.15;;;5.00;99.90;;;;;;5047431;28;20052;-37
2023/01/09 06:57:52;;;;;;;5.28;2.13;;;5.10;99.90;;;;;;5066047;28;20044;-37
2023/01/09 07:00:19;;;;;;;8.70;2.38;;;5.10;99.90;;;;;;5059904;28;21400;-38
2023/01/09 07:02:44;;;;;;;7.50;2.25;;;5.10;99.90;;;;;;5057021;28;20467;-37
2023/01/09 07:05:10;;;;;;;5.32;1.98;;;5.20;99.90;;;;;;5040184;28;20040;-37
2023/01/09 07:07:40;;;;;;;5.13;1.80;;;5.20;99.90;;;;;;5057585;28;20414;-39
2023/01/09 07:10:08;;;;;;;6.43;2.33;;;5.20;99.90;;;;;;5058474;28;20083;-38
2023/01/09 07:12:33;;;;;;;8.27;1.92;;;5.20;99.90;;;;;;5061592;28;20052;-38
2023/01/09 07:14:59;;;;;;;6.40;1.58;;;5.30;99.90;;;;;;5063981;28;20041;-37
2023/01/09 07:17:25;;;;;;;7.90;2.70;;;5.30;99.90;;;;;;5058144;28;20082;-37
2023/01/09 07:19:51;;;;;;;7.63;2.00;;;5.30;99.90;;;;;;5063900;28;20047;-37
2023/01/09 07:22:17;;;;;;;5.68;1.88;;;5.30;99.90;;;;;;5066243;28;20036;-37
2023/01/09 07:24:46;;;;;;;5.88;2.30;;;5.30;99.90;;;;;;5068055;28;20177;-37
2023/01/09 07:27:11;;;;;;;5.68;2.25;;;5.30;99.90;;;;;;5062355;28;20033;-37
2023/01/09 07:29:37;;;;;;;5.75;2.13;;;5.40;99.90;;;;;;5058950;28;20498;-38
2023/01/09 07:32:03;;;;;;;5.10;2.17;;;5.40;99.90;;;;;;5061701;28;20040;-38
2023/01/09 07:34:29;;;;;;;5.75;2.53;;;5.40;99.90;;;;;;5061064;28;20045;-38
2023/01/09 07:36:54;;;;;;;6.18;2.35;;;5.40;99.90;;;;;;5059807;28;20135;-38
2023/01/09 07:39:20;;;;;;;7.68;2.33;;;5.40;99.90;;;;;;5058977;28;20040;-38
2023/01/09 07:41:46;;;;;;;5.78;2.20;;;5.50;99.90;;;;;;5066721;28;20567;-38
2023/01/09 07:44:12;;;;;;;7.97;2.20;;;5.50;99.90;;;;;;5065924;28;20046;-38
2023/01/09 07:46:38;;;;;;;5.72;2.03;;;5.50;99.90;;;;;;5056448;28;20055;-37
2023/01/09 07:49:04;;;;;;;10.18;2.35;;;5.50;99.90;;;;;;5057933;28;20036;-38
2023/01/09 07:51:30;;;;;;;5.70;1.92;;;5.60;99.90;;;;;;5064268;28;20032;-38
2023/01/09 07:53:55;;;;;;;5.47;2.22;;;5.60;99.90;;;;;;5053817;28;20075;-38
2023/01/09 07:56:21;;;;;;;6.75;2.15;;;5.60;99.90;;;;;;5059352;28;20036;-38
2023/01/09 07:58:47;;;;;;;6.00;1.90;;;5.70;99.90;;;;;;5054396;28;20071;-37
2023/01/09 08:01:12;;;;;;;3.78;1.52;;;5.60;99.90;;;;;;5061224;28;20040;-38
2023/01/09 08:03:38;;;;;;;8.30;1.40;;;5.60;99.90;;;;;;5058033;28;20040;-38
2023/01/09 08:06:04;;;;;;;3.95;1.50;;;5.70;99.90;;;;;;5065091;28;20044;-38
2023/01/09 08:08:30;;;;;;;3.60;1.17;;;5.70;99.90;;;;;;5063475;28;20060;-40
2023/01/09 08:10:55;;;;;;;3.85;1.42;;;5.70;99.90;;;;;;5062288;28;20503;-38
2023/01/09 08:13:21;;;;;;;14.10;1.63;;;5.70;99.90;;;;;;5062832;28;20043;-37
2023/01/09 08:15:47;;;;;;;3.35;1.42;;;5.70;99.90;;;;;;5060440;28;20036;-37
2023/01/09 08:18:13;;;;;;;6.30;1.73;;;5.70;99.90;;;;;;5062898;28;20167;-38
2023/01/09 08:20:38;;;;;;;6.47;1.73;;;5.70;99.90;;;;;;5063540;28;20048;-37
2023/01/09 08:23:04;;;;;;;5.82;1.75;;;5.70;99.90;;;;;;5063161;28;20409;-37
2023/01/09 08:25:30;;;;;;;5.00;1.58;;;5.80;99.90;;;;;;5060303;28;20047;-38
2023/01/09 08:27:55;;;;;;;4.38;1.27;;;5.80;99.90;;;;;;5062711;28;20043;-38
2023/01/09 08:30:21;;;;;;;4.63;1.50;;;5.80;99.90;;;;;;5062483;28;20444;-37
2023/01/09 08:32:52;;;;;;;8.35;1.73;;;5.80;99.90;;;;;;5062101;28;20251;-37
2023/01/09 08:35:18;;;;;;;3.90;1.05;;;5.80;99.90;;;;;;5064059;28;20058;-38
2023/01/09 08:37:45;;;;;;;4.28;1.40;;;5.80;99.90;;;;;;5055158;28;22338;-39
2023/01/09 08:40:12;;;;;;;4.78;1.50;;;5.80;99.90;;;;;;5062836;28;20079;-38
2023/01/09 08:48:06;;;;;;;2.50;1.00;;;5.90;99.90;;;;;;5062831;28;20041;-37
2023/01/09 08:50:32;;;;;;;4.65;1.70;;;5.90;99.90;;;;;;5045723;28;20040;-37
2023/01/09 08:52:58;;;;;;;9.45;2.30;;;6.00;99.90;;;;;;5062602;28;20052;-39
2023/01/09 08:55:24;;;;;;;4.68;1.20;;;6.00;99.90;;;;;;5061948;28;20098;-37
2023/01/09 08:57:51;;;;;;;5.50;1.33;;;6.10;99.90;;;;;;5063020;28;20062;-38
2023/01/09 09:00:18;;;;;;;5.15;1.50;;;6.10;99.90;;;;;;5057789;28;20262;-37
2023/01/09 09:02:44;;;;;;;7.22;1.35;;;6.10;99.90;;;;;;5053622;28;20044;-39
2023/01/09 09:05:10;;;;;;;4.82;1.27;;;6.10;99.90;;;;;;5057165;28;20033;-40
2023/01/09 09:07:35;;;;;;;9.15;1.77;;;6.10;99.90;;;;;;5056317;28;20045;-40
2023/01/09 09:10:01;;;;;;;5.85;1.35;;;6.20;99.90;;;;;;5059778;28;20134;-37
2023/01/09 09:12:27;;;;;;;7.97;1.88;;;6.20;99.90;;;;;;5069018;28;20452;-38
2023/01/09 09:15:11;;;;;;;5.75;1.63;;;6.20;99.90;;;;;;5060596;28;20039;-39
2023/01/09 09:17:39;;;;;;;6.38;1.52;;;6.20;99.90;;;;;;5063111;28;20068;-39
2023/01/09 09:20:05;;;;;;;5.72;1.58;;;6.20;99.90;;;;;;5054171;28;20510;-39
2023/01/09 09:22:31;;;;;;;8.52;1.85;;;6.20;99.90;;;;;;5061965;28;20051;-39
2023/01/09 09:24:57;;;;;;;4.32;1.38;;;6.30;99.90;;;;;;5061888;28;20041;-37
2023/01/09 09:27:22;;;;;;;4.68;1.10;;;6.30;99.90;;;;;;5062680;28;20068;-38
2023/01/09 09:29:48;;;;;;;4.43;1.77;;;6.30;99.90;;;;;;5056494;28;20048;-37
2023/01/09 09:32:14;;;;;;;8.93;1.38;;;6.30;99.90;;;;;;5058266;28;20035;-39
2023/01/09 09:34:39;;;;;;;7.05;1.23;;;6.30;99.90;;;;;;5060564;28;20079;-38
2023/01/09 09:37:05;;;;;;;4.93;1.30;;;6.30;99.90;;;;;;5058956;28;21742;-40
2023/01/09 09:39:31;;;;;;;8.43;2.78;;;6.30;99.90;;;;;;5063064;28;20068;-41
2023/01/09 09:45:00;;;;;;;;;;;6.30;99.90;;;;;;5059102;28;20408;-38
2023/01/09 09:47:45;;;;;;;5.28;1.38;;;6.30;99.90;;;;;;5063710;28;19932;-38
2023/01/09 09:50:58;;;;;;;3.75;1.38;;;6.30;99.90;;;;;;5064184;28;20040;-38
2023/01/09 09:53:32;;;;;;;5.30;1.70;;;6.40;99.90;;;;;;5000326;28;20054;-38
2023/01/09 09:55:58;;;;;;;6.90;1.70;;;6.40;99.90;;;;;;5037956;28;20040;-37
2023/01/09 09:58:33;;;;;;;5.40;1.50;;;6.40;99.90;;;;;;5043786;28;20098;-39
2023/01/09 10:00:59;;;;;;;7.22;1.70;;;6.40;99.90;;;;;;5039017;28;20029;-39
2023/01/09 10:03:38;;;;;;;7.28;1.50;;;6.40;99.90;;;;;;5040739;28;20045;-37
2023/01/09 10:06:14;;;;;;;3.72;1.45;;;6.40;99.90;;;;;;5043806;28;20051;-37
2023/01/09 10:09:01;;;;;;;4.18;1.73;;;6.40;99.90;;;;;;5039695;28;20422;-38
2023/01/09 10:11:45;;;;;;;5.72;1.70;;;6.50;99.90;;;;;;5038903;28;20048;-38
2023/01/09 10:14:11;;;;;;;4.93;1.60;;;6.50;99.90;;;;;;5047946;28;20571;-38
2023/01/09 10:16:55;;;;;;;3.50;1.30;;;6.50;99.90;;;;;;5044728;28;20067;-38
2023/01/09 10:19:51;;;;;;;6.90;1.75;;;6.50;99.90;;;;;;5045323;28;20032;-38
2023/01/09 10:22:40;;;;;;;3.33;1.50;;;6.50;99.90;;;;;;5045435;28;20098;-37
2023/01/09 10:25:20;;;;;;;10.60;1.50;;;6.50;99.90;;;;;;5044905;28;20394;-37
2023/01/09 10:27:59;;;;;;;5.05;2.22;;;6.50;99.90;;;;;;5029844;28;20053;-38
2023/01/09 10:30:47;;;;;;;5.90;1.95;;;6.50;99.90;;;;;;5040517;28;20041;-38
2023/01/09 10:33:48;;;;;;;7.18;1.75;;;6.50;99.90;;;;;;5050116;28;20052;-37
2023/01/09 10:36:54;;;;;;;7.40;2.22;;;6.60;99.90;;;;;;5044292;28;20037;-37
2023/01/09 10:39:34;;;;;;;4.70;1.80;;;6.60;99.90;;;;;;5040953;28;20124;-37
2023/01/09 10:42:10;;;;;;;8.02;2.28;;;6.60;99.90;;;;;;5047947;28;20444;-38
2023/01/09 10:44:52;;;;;;;8.18;2.05;;;6.60;99.90;;;;;;5046217;28;20129;-40
2023/01/09 10:47:24;;;;;;;8.70;2.65;;;6.70;99.90;;;;;;5043445;28;20076;-40
2023/01/09 10:49:51;;;;;;;;;;;6.70;99.90;;;;;;5046269;28;20032;-38
2023/01/09 10:52:19;;;;;;;7.22;2.63;;;6.70;99.90;;;;;;5049734;28;19927;-37
2023/01/09 10:54:56;;;;;;;9.98;2.97;;;6.70;99.90;;;;;;5064627;28;20033;-37
2023/01/09 10:57:31;;;;;;;10.52;4.30;;;6.70;99.90;;;;;;5064946;28;20059;-38
2023/01/09 10:59:56;;;;;;;8.63;3.00;;;6.70;99.90;;;;;;5065482;28;20044;-38
2023/01/09 11:02:30;;;;;;;7.60;3.35;;;6.70;99.90;;;;;;5064598;28;20040;-39
2023/01/09 11:04:56;;;;;;;7.10;3.63;;;6.80;99.90;;;;;;5063133;28;20051;-38
2023/01/09 11:07:35;;;;;;;9.18;3.50;;;6.80;99.90;;;;;;5065341;28;20028;-39
2023/01/09 11:10:07;;;;;;;8.77;3.85;;;6.80;99.90;;;;;;5064904;28;20110;-38
2023/01/09 11:12:34;;;;;;;9.05;3.78;;;6.80;99.90;;;;;;5065766;28;20029;-38
2023/01/09 11:15:15;;;;;;;9.35;3.50;;;6.90;99.90;;;;;;5062039;28;20060;-38
2023/01/09 11:17:42;;;;;;;9.25;4.22;;;6.90;99.90;;;;;;5066678;28;20490;-37
2023/01/09 11:20:16;;;;;;;7.25;3.88;;;6.90;99.90;;;;;;5065571;28;20036;-38
2023/01/09 11:22:53;;;;;;;11.70;4.40;;;6.90;99.90;;;;;;5065229;28;20109;-38
2023/01/09 11:25:22;;;;;;;10.02;4.30;;;6.90;99.90;;;;;;5058248;28;20043;-37
2023/01/09 11:28:05;;;;;;;7.85;3.78;;;7.00;99.90;;;;;;5063232;28;20036;-37
2023/01/09 11:30:49;;;;;;;11.98;4.82;;;7.00;99.90;;;;;;5060682;28;20441;-38
2023/01/09 11:33:21;;;;;;;8.85;3.70;;;7.10;99.90;;;;;;5056964;28;20052;-38
2023/01/09 11:36:03;;;;;;;9.65;4.35;;;7.20;99.90;;;;;;5060872;28;20322;-38
2023/01/09 11:38:32;;;;;;;10.60;3.92;;;7.30;99.90;;;;;;5061012;28;20453;-40
2023/01/09 11:41:02;;;;;;;9.63;4.68;;;7.30;99.90;;;;;;5056615;28;20040;-38
2023/01/09 11:43:31;;;;;;;9.52;4.30;;;7.40;99.90;;;;;;5059766;28;20072;-38
2023/01/09 11:46:00;;;;;;;14.43;5.20;;;7.40;99.90;;;;;;5061416;28;20033;-38
2023/01/09 11:48:37;;;;;;;11.82;5.32;;;7.50;99.90;;;;;;5060344;28;20508;-37
2023/01/09 11:51:14;;;;;;;10.05;4.97;;;7.60;99.90;;;;;;5064079;28;20515;-38
2023/01/09 11:54:00;;;;;;;10.40;5.20;;;7.60;99.90;;;;;;5058446;28;20218;-37
2023/01/09 11:56:26;;;;;;;13.15;5.07;;;7.60;99.90;;;;;;5063674;28;20300;-39
2023/01/09 11:58:52;;;;;;;10.18;5.00;;;7.60;99.90;;;;;;5060219;28;20511;-38
2023/01/09 12:01:44;;;;;;;8.98;5.00;;;7.60;99.90;;;;;;5064662;28;20039;-38
2023/01/09 12:04:34;;;;;;;9.88;4.43;;;7.60;99.90;;;;;;5062399;28;20102;-38
2023/01/09 12:07:16;;;;;;;8.68;4.00;;;7.70;99.90;;;;;;5059003;28;20127;-38
2023/01/09 12:10:19;;;;;;;12.27;4.75;;;7.70;99.90;;;;;;5065657;28;20043;-38
2023/01/09 12:13:03;;;;;;;7.13;4.07;;;7.70;99.90;;;;;;5062756;28;20075;-37
2023/01/09 12:15:42;;;;;;;8.82;3.63;;;7.70;99.90;;;;;;5060168;28;20106;-39
2023/01/09 12:18:23;;;;;;;7.85;3.13;;;7.60;99.90;;;;;;5064157;28;20059;-38
2023/01/09 12:21:05;;;;;;;7.80;3.83;;;7.70;99.90;;;;;;5057270;28;20032;-39
2023/01/09 12:23:43;;;;;;;8.55;3.67;;;7.60;99.90;;;;;;5059030;28;20048;-37
2023/01/09 12:26:22;;;;;;;7.25;3.30;;;7.60;99.90;;;;;;5066411;28;20037;-38
2023/01/09 12:29:00;;;;;;;10.73;3.75;;;7.60;99.90;;;;;;5061781;28;20111;-37
2023/01/09 12:31:37;;;;;;;8.82;3.83;;;7.60;99.90;;;;;;5058545;28;20041;-37
2023/01/09 12:34:18;;;;;;;8.38;3.00;;;7.60;99.90;;;;;;5046857;28;20071;-38
2023/01/09 12:37:03;;;;;;;9.75;3.65;;;7.60;99.90;;;;;;5068343;28;20040;-37
2023/01/09 12:39:54;;;;;;;9.27;3.03;;;7.60;99.90;;;;;;5066670;28;20041;-37
2023/01/09 12:42:19;;;;;;;11.02;2.47;;;7.60;99.90;;;;;;5062158;28;20059;-37
2023/01/09 12:45:21;;;;;;;6.70;2.97;;;7.60;99.90;;;;;;5066273;28;20535;-37
2023/01/09 12:47:51;;;;;;;10.95;2.75;;;7.60;99.90;;;;;;5061654;28;20155;-38
2023/01/09 12:50:27;;;;;;;10.38;2.90;;;7.60;99.90;;;;;;5065965;28;20041;-41
2023/01/09 12:53:02;;;;;;;7.68;2.83;;;7.70;99.90;;;;;;5062570;28;20129;-37
2023/01/09 12:55:34;;;;;;;4.72;1.70;;;7.70;99.90;;;;;;5062601;28;20040;-38
2023/01/09 12:58:05;;;;;;;;;;;7.80;99.90;;;;;;5062303;28;20037;-37
2023/01/09 13:00:39;;;;;;;9.75;2.35;;;7.70;99.90;;;;;;5063825;28;20000;-38
2023/01/09 13:03:11;;;;;;;6.63;1.83;;;7.80;99.90;;;;;;5061262;28;20044;-37
2023/01/09 13:05:43;;;;;;;9.70;2.33;;;7.90;99.90;;;;;;5064061;28;20067;-40
2023/01/09 13:08:22;;;;;;;4.00;1.00;;;8.00;99.90;;;;;;5062027;28;20035;-38
2023/01/09 13:11:08;;;;;;;7.45;1.50;;;8.00;99.90;;;;;;5062727;28;20341;-39
2023/01/09 13:13:43;;;;;;;6.00;0.85;;;8.10;99.90;;;;;;5058510;28;20075;-37
2023/01/09 13:16:16;;;;;;;4.45;1.30;;;8.10;99.90;;;;;;5062222;28;20036;-38
2023/01/09 13:18:54;;;;;;;4.88;1.05;;;8.30;99.90;;;;;;5062300;28;20418;-37
2023/01/09 13:21:20;;;;;;;12.35;1.40;;;8.40;99.90;;;;;;5066447;28;20068;-37
2023/01/09 13:23:54;;;;;;;7.85;1.38;;;8.60;99.90;;;;;;5064569;28;20141;-37
2023/01/09 13:26:28;;;;;;;4.97;0.70;;;8.60;99.90;;;;;;5062321;28;20036;-37